createdAt,value
2018-04-26T00:01:33.589Z,1021.01
2018-04-26T00:02:34.219Z,1021.02
2018-04-26T00:03:34.801Z,1020.98
2018-04-26T00:04:35.375Z,1021.09
2018-04-26T00:06:20.510Z,1021.10
2018-04-26T00:07:21.091Z,1021.09
2018-04-26T00:08:21.670Z,1021.04
2018-04-26T00:09:22.248Z,1021.02
2018-04-26T00:11:07.488Z,1021.08
2018-04-26T00:12:08.070Z,1021.13
2018-04-26T00:13:08.649Z,1021.11
2018-04-26T00:14:09.228Z,1021.05
2018-04-26T00:15:54.378Z,1021.12
2018-04-26T00:16:54.995Z,1021.14
2018-04-26T00:17:55.574Z,1021.12
2018-04-26T00:18:56.154Z,1021.18
2018-04-26T00:20:41.247Z,1021.16
2018-04-26T00:21:41.830Z,1021.06
2018-04-26T00:22:42.409Z,1021.11
2018-04-26T00:23:42.988Z,1021.03
2018-04-26T00:25:28.231Z,1021.04
2018-04-26T00:26:28.960Z,1021.15
2018-04-26T00:27:29.539Z,1021.09
2018-04-26T00:28:30.120Z,1021.08
2018-04-26T00:30:15.210Z,1021.05
2018-04-26T00:31:15.790Z,1021.05
2018-04-26T00:32:16.370Z,1021.00
2018-04-26T00:33:17.001Z,1021.01
2018-04-26T00:35:02.096Z,1020.93
2018-04-26T00:36:02.679Z,1020.98
2018-04-26T00:37:03.256Z,1020.98
2018-04-26T00:38:03.835Z,1020.97
2018-04-26T00:39:48.929Z,1020.91
2018-04-26T00:40:49.600Z,1020.98
2018-04-26T00:41:50.228Z,1020.87
2018-04-26T00:42:50.809Z,1021.01
2018-04-26T00:44:35.903Z,1020.90
2018-04-26T00:45:36.482Z,1021.00
2018-04-26T00:46:37.061Z,1020.96
2018-04-26T00:47:37.642Z,1020.93
2018-04-26T00:49:22.888Z,1020.91
2018-04-26T00:50:23.465Z,1020.83
2018-04-26T00:51:24.042Z,1020.87
2018-04-26T00:52:24.622Z,1020.87
2018-04-26T00:54:09.864Z,1020.88
2018-04-26T00:55:10.444Z,1020.90
2018-04-26T00:56:11.024Z,1020.87
2018-04-26T00:57:11.603Z,1020.86
2018-04-26T00:58:56.694Z,1020.88
2018-04-26T00:59:57.277Z,1020.88
2018-04-26T01:00:57.895Z,1020.85
2018-04-26T01:01:58.475Z,1020.86
2018-04-26T01:03:43.615Z,1020.83
2018-04-26T01:04:44.244Z,1020.75
2018-04-26T01:05:44.822Z,1020.83
2018-04-26T01:06:45.402Z,1020.76
2018-04-26T01:08:30.539Z,1020.75
2018-04-26T01:09:31.120Z,1020.78
2018-04-26T01:10:31.699Z,1020.78
2018-04-26T01:11:32.280Z,1020.80
2018-04-26T01:13:17.429Z,1020.76
2018-04-26T01:14:18.003Z,1020.79
2018-04-26T01:15:18.587Z,1020.78
2018-04-26T01:16:19.206Z,1020.72
2018-04-26T01:18:04.297Z,1020.79
2018-04-26T01:19:04.880Z,1020.80
2018-04-26T01:20:05.463Z,1020.77
2018-04-26T01:21:06.037Z,1020.76
2018-04-26T01:22:51.178Z,1020.79
2018-04-26T01:23:51.757Z,1020.70
2018-04-26T01:24:52.336Z,1020.74
2018-04-26T01:25:52.964Z,1020.85
2018-04-26T01:27:38.058Z,1020.74
2018-04-26T01:28:38.638Z,1020.69
2018-04-26T01:29:39.218Z,1020.74
2018-04-26T01:30:39.798Z,1020.68
2018-04-26T01:32:25.090Z,1020.70
2018-04-26T01:33:25.669Z,1020.71
2018-04-26T01:34:26.250Z,1020.73
2018-04-26T01:35:26.873Z,1020.71
2018-04-26T01:37:11.963Z,1020.68
2018-04-26T01:38:12.543Z,1020.69
2018-04-26T01:39:13.121Z,1020.67
2018-04-26T01:40:13.702Z,1020.71
2018-04-26T01:41:58.793Z,1020.66
2018-04-26T01:42:59.525Z,1020.63
2018-04-26T01:44:00.146Z,1020.68
2018-04-26T01:45:00.725Z,1020.66
2018-04-26T01:46:45.917Z,1020.64
2018-04-26T01:47:46.497Z,1020.56
2018-04-26T01:48:47.074Z,1020.56
2018-04-26T01:49:47.651Z,1020.63
2018-04-26T01:51:32.743Z,1020.54
2018-04-26T01:52:33.326Z,1020.51
2018-04-26T01:53:33.906Z,1020.57
2018-04-26T01:54:34.484Z,1020.57
2018-04-26T01:56:19.618Z,1020.53
2018-04-26T01:57:20.198Z,1020.57
2018-04-26T01:58:20.778Z,1020.46
2018-04-26T01:59:21.359Z,1020.54
2018-04-26T02:01:06.448Z,1020.46
2018-04-26T02:02:07.026Z,1020.50
2018-04-26T02:03:07.607Z,1020.46
2018-04-26T02:04:08.236Z,1020.41
2018-04-26T02:05:53.378Z,1020.41
2018-04-26T02:06:53.958Z,1020.37
2018-04-26T02:07:54.634Z,1020.36
2018-04-26T02:08:55.208Z,1020.42
2018-04-26T02:10:40.304Z,1020.43
2018-04-26T02:11:40.883Z,1020.46
2018-04-26T02:12:41.463Z,1020.40
2018-04-26T02:13:42.044Z,1020.44
2018-04-26T02:15:27.135Z,1020.51
2018-04-26T02:16:27.715Z,1020.45
2018-04-26T02:17:28.294Z,1020.42
2018-04-26T02:18:28.874Z,1020.43
2018-04-26T02:20:14.166Z,1020.41
2018-04-26T02:21:14.791Z,1020.40
2018-04-26T02:22:15.370Z,1020.48
2018-04-26T02:23:15.953Z,1020.37
2018-04-26T02:25:01.137Z,1020.35
2018-04-26T02:26:01.715Z,1020.34
2018-04-26T02:27:02.293Z,1020.25
2018-04-26T02:28:02.872Z,1020.23
2018-04-26T02:29:47.964Z,1020.20
2018-04-26T02:30:48.544Z,1020.21
2018-04-26T02:31:49.124Z,1020.20
2018-04-26T02:32:49.706Z,1020.24
2018-04-26T02:34:34.794Z,1020.19
2018-04-26T02:35:35.425Z,1020.17
2018-04-26T02:36:36.009Z,1020.14
2018-04-26T02:37:36.626Z,1020.12
2018-04-26T02:39:21.768Z,1020.03
2018-04-26T02:40:22.346Z,1020.11
2018-04-26T02:41:22.924Z,1020.06
2018-04-26T02:42:23.504Z,1020.08
2018-04-26T02:44:08.595Z,1020.05
2018-04-26T02:45:09.223Z,1020.19
2018-04-26T02:46:09.806Z,1020.14
2018-04-26T02:47:10.388Z,1020.09
2018-04-26T02:48:55.475Z,1020.16
2018-04-26T02:49:56.050Z,1020.06
2018-04-26T02:50:56.629Z,1020.06
2018-04-26T02:51:57.210Z,1020.09
2018-04-26T02:53:42.300Z,1020.11
2018-04-26T02:54:42.880Z,1019.95
2018-04-26T02:55:43.458Z,1019.98
2018-04-26T02:56:44.039Z,1020.03
2018-04-26T02:58:29.137Z,1020.03
2018-04-26T02:59:29.758Z,1020.00
2018-04-26T03:00:30.387Z,1019.96
2018-04-26T03:01:30.965Z,1019.96
2018-04-26T03:03:16.109Z,1019.98
2018-04-26T03:04:16.688Z,1020.02
2018-04-26T03:05:17.274Z,1020.06
2018-04-26T03:06:17.847Z,1020.00
2018-04-26T03:08:02.979Z,1019.98
2018-04-26T03:09:03.560Z,1019.99
2018-04-26T03:10:04.141Z,1020.02
2018-04-26T03:11:04.716Z,1019.97
2018-04-26T03:12:49.806Z,1020.01
2018-04-26T03:13:50.384Z,1020.02
2018-04-26T03:14:50.964Z,1020.00
2018-04-26T03:15:51.543Z,1020.00
2018-04-26T03:17:36.683Z,1020.04
2018-04-26T03:18:37.267Z,1020.01
2018-04-26T03:19:37.841Z,1020.00
2018-04-26T03:20:38.419Z,1020.06
2018-04-26T03:22:23.512Z,1020.02
2018-04-26T03:23:24.090Z,1019.97
2018-04-26T03:24:24.720Z,1019.99
2018-04-26T03:25:25.300Z,1019.99
2018-04-26T03:27:10.486Z,1020.07
2018-04-26T03:28:11.063Z,1020.03
2018-04-26T03:29:11.683Z,1020.03
2018-04-26T03:30:12.307Z,1020.08
2018-04-26T03:31:57.397Z,1019.93
2018-04-26T03:32:57.975Z,1020.02
2018-04-26T03:33:58.555Z,1020.09
2018-04-26T03:34:59.135Z,1020.03
2018-04-26T03:36:44.226Z,1020.01
2018-04-26T03:37:44.855Z,1019.95
2018-04-26T03:38:45.435Z,1020.07
2018-04-26T03:39:46.012Z,1020.04
2018-04-26T03:41:31.103Z,1020.00
2018-04-26T03:42:31.683Z,1019.96
2018-04-26T03:43:32.312Z,1020.00
2018-04-26T03:44:32.984Z,1019.93
2018-04-26T03:46:18.078Z,1019.93
2018-04-26T03:47:18.660Z,1020.00
2018-04-26T03:48:19.236Z,1019.97
2018-04-26T03:49:19.815Z,1019.95
2018-04-26T03:51:04.906Z,1019.97
2018-04-26T03:52:05.486Z,1019.90
2018-04-26T03:53:06.115Z,1019.95
2018-04-26T03:54:06.693Z,1019.90
2018-04-26T03:55:51.785Z,1019.96
2018-04-26T03:56:52.364Z,1019.89
2018-04-26T03:57:52.945Z,1019.94
2018-04-26T03:58:53.565Z,1019.92
2018-04-26T04:01:40.279Z,1020.00
2018-04-26T04:02:40.847Z,1019.97
2018-04-26T04:03:41.426Z,1019.98
2018-04-26T04:05:26.567Z,1019.96
2018-04-26T04:06:27.146Z,1019.94
2018-04-26T04:07:27.722Z,1019.87
2018-04-26T04:12:34.608Z,1019.84
2018-04-26T04:15:39.680Z,1019.88
2018-04-26T04:17:47.887Z,1019.83
2018-04-26T04:22:36.647Z,1019.88
2018-04-26T04:24:39.191Z,1019.76
2018-04-26T04:25:39.762Z,1019.82
2018-04-26T04:27:24.709Z,1019.85
2018-04-26T04:28:25.254Z,1019.90
2018-04-26T04:29:25.874Z,1019.80
2018-04-26T04:30:26.451Z,1019.83
2018-04-26T04:32:11.366Z,1019.80
2018-04-26T04:33:11.937Z,1019.76
2018-04-26T04:34:12.510Z,1019.75
2018-04-26T04:35:13.112Z,1019.82
2018-04-26T04:36:58.002Z,1019.75
2018-04-26T04:37:58.575Z,1019.80
2018-04-26T04:38:59.240Z,1019.73
2018-04-26T04:39:59.812Z,1019.77
2018-04-26T04:41:44.735Z,1019.81
2018-04-26T04:42:45.361Z,1019.81
2018-04-26T04:43:45.971Z,1019.76
2018-04-26T04:44:46.597Z,1019.79
2018-04-26T04:46:31.514Z,1019.78
2018-04-26T04:47:32.087Z,1019.75
2018-04-26T04:48:32.703Z,1019.79
2018-04-26T04:49:33.277Z,1019.81
2018-04-26T04:51:18.201Z,1019.81
2018-04-26T04:52:18.774Z,1019.76
2018-04-26T04:53:19.346Z,1019.80
2018-04-26T04:54:19.919Z,1019.77
2018-04-26T04:56:04.841Z,1019.76
2018-04-26T04:57:05.411Z,1019.83
2018-04-26T04:58:06.035Z,1019.82
2018-04-26T04:59:06.607Z,1019.84
2018-04-26T05:00:51.629Z,1019.83
2018-04-26T05:01:52.203Z,1019.75
2018-04-26T05:02:52.775Z,1019.84
2018-04-26T05:03:53.348Z,1019.80
2018-04-26T05:05:38.271Z,1019.93
2018-04-26T05:06:38.842Z,1019.89
2018-04-26T05:07:39.417Z,1019.94
2018-04-26T05:08:39.990Z,1019.86
2018-04-26T05:10:24.912Z,1019.84
2018-04-26T05:11:25.483Z,1019.82
2018-04-26T05:12:26.057Z,1019.88
2018-04-26T05:13:26.632Z,1019.87
2018-04-26T05:15:11.604Z,1019.94
2018-04-26T05:16:57.987Z,1019.91
2018-04-26T05:18:12.325Z,1019.85
2018-04-26T05:22:31.672Z,1019.89
2018-04-26T05:29:27.807Z,1019.90
2018-04-26T05:30:28.478Z,1019.86
2018-04-26T05:31:29.100Z,1019.84
2018-04-26T05:32:29.673Z,1019.81
2018-04-26T05:34:14.794Z,1019.83
2018-04-26T05:35:15.365Z,1019.85
2018-04-26T05:36:15.937Z,1019.88
2018-04-26T05:37:16.510Z,1019.91
2018-04-26T05:39:01.432Z,1019.96
2018-04-26T05:40:02.004Z,1019.83
2018-04-26T05:41:02.576Z,1019.95
2018-04-26T05:42:03.148Z,1019.98
2018-04-26T05:43:48.069Z,1019.99
2018-04-26T05:44:48.641Z,1019.95
2018-04-26T05:45:49.215Z,1019.98
2018-04-26T05:46:49.792Z,1019.94
2018-04-26T05:48:34.863Z,1020.10
2018-04-26T05:49:35.383Z,1020.05
2018-04-26T05:50:35.956Z,1020.11
2018-04-26T05:51:36.528Z,1020.11
2018-04-26T05:53:21.501Z,1020.12
2018-04-26T05:54:22.076Z,1020.11
2018-04-26T05:55:22.648Z,1020.11
2018-04-26T05:56:23.223Z,1020.18
2018-04-26T05:58:08.143Z,1020.13
2018-04-26T05:59:08.715Z,1020.15
2018-04-26T06:00:09.289Z,1020.14
2018-04-26T06:01:09.862Z,1020.11
2018-04-26T06:02:54.783Z,1020.13
2018-04-26T06:03:55.354Z,1020.13
2018-04-26T06:04:55.929Z,1020.14
2018-04-26T06:05:56.551Z,1020.11
2018-04-26T06:07:41.474Z,1020.22
2018-04-26T06:08:42.196Z,1020.12
2018-04-26T06:09:42.769Z,1020.10
2018-04-26T06:10:43.342Z,1020.17
2018-04-26T06:12:28.265Z,1020.09
2018-04-26T06:13:28.838Z,1020.07
2018-04-26T06:14:29.411Z,1020.15
2018-04-26T06:15:29.985Z,1020.14
2018-04-26T06:17:14.947Z,1020.21
2018-04-26T06:18:15.479Z,1020.13
2018-04-26T06:19:16.061Z,1020.16
2018-04-26T06:20:16.627Z,1020.20
2018-04-26T06:22:01.698Z,1020.23
2018-04-26T06:23:02.271Z,1020.18
2018-04-26T06:24:02.844Z,1020.23
2018-04-26T06:25:03.517Z,1020.25
2018-04-26T06:26:48.427Z,1020.28
2018-04-26T06:27:49.049Z,1020.29
2018-04-26T06:28:49.622Z,1020.38
2018-04-26T06:29:50.193Z,1020.32
2018-04-26T06:31:35.116Z,1020.32
2018-04-26T06:32:35.689Z,1020.32
2018-04-26T06:33:36.262Z,1020.28
2018-04-26T06:34:36.837Z,1020.26
2018-04-26T06:36:21.763Z,1020.33
2018-04-26T06:37:22.331Z,1020.30
2018-04-26T06:38:22.906Z,1020.28
2018-04-26T06:39:23.480Z,1020.33
2018-04-26T06:41:08.452Z,1020.37
2018-04-26T06:42:09.026Z,1020.31
2018-04-26T06:43:09.648Z,1020.32
2018-04-26T06:44:10.221Z,1020.33
2018-04-26T06:45:55.143Z,1020.27
2018-04-26T06:46:55.715Z,1020.41
2018-04-26T06:47:56.377Z,1020.38
2018-04-26T06:48:56.904Z,1020.35
2018-04-26T06:50:41.973Z,1020.45
2018-04-26T06:51:42.545Z,1020.44
2018-04-26T06:52:43.118Z,1020.58
2018-04-26T06:53:43.742Z,1020.49
2018-04-26T06:55:28.663Z,1020.52
2018-04-26T06:56:29.235Z,1020.51
2018-04-26T06:57:29.813Z,1020.55
2018-04-26T06:58:30.429Z,1020.52
2018-04-26T07:00:15.398Z,1020.55
2018-04-26T07:01:15.971Z,1020.60
2018-04-26T07:02:16.545Z,1020.62
2018-04-26T07:03:17.118Z,1020.61
2018-04-26T07:05:02.039Z,1020.67
2018-04-26T07:06:02.661Z,1020.57
2018-04-26T07:07:03.233Z,1020.67
2018-04-26T07:08:03.805Z,1020.63
2018-04-26T07:09:48.731Z,1020.65
2018-04-26T07:10:49.300Z,1020.60
2018-04-26T07:11:49.925Z,1020.71
2018-04-26T07:12:50.498Z,1020.58
2018-04-26T07:14:35.420Z,1020.68
2018-04-26T07:15:36.002Z,1020.57
2018-04-26T07:16:36.615Z,1020.61
2018-04-26T07:17:37.184Z,1020.65
2018-04-26T07:19:22.154Z,1020.55
2018-04-26T07:20:22.729Z,1020.49
2018-04-26T07:21:23.301Z,1020.50
2018-04-26T07:22:23.873Z,1020.57
2018-04-26T07:24:08.796Z,1020.55
2018-04-26T07:25:09.368Z,1020.56
2018-04-26T07:26:10.042Z,1020.58
2018-04-26T07:27:10.565Z,1020.59
2018-04-26T07:28:55.490Z,1020.57
2018-04-26T07:29:56.103Z,1020.64
2018-04-26T07:30:56.677Z,1020.60
2018-04-26T07:31:57.250Z,1020.63
2018-04-26T07:33:42.320Z,1020.55
2018-04-26T07:34:42.894Z,1020.51
2018-04-26T07:35:43.467Z,1020.45
2018-04-26T07:36:44.090Z,1020.51
2018-04-26T07:38:29.013Z,1020.46
2018-04-26T07:39:29.585Z,1020.50
2018-04-26T07:40:30.159Z,1020.46
2018-04-26T07:41:30.733Z,1020.53
2018-04-26T07:43:15.853Z,1020.49
2018-04-26T07:44:16.427Z,1020.49
2018-04-26T07:45:17.000Z,1020.55
2018-04-26T07:46:17.573Z,1020.55
2018-04-26T07:48:02.492Z,1020.57
2018-04-26T07:49:03.064Z,1020.52
2018-04-26T07:50:03.639Z,1020.58
2018-04-26T07:51:04.213Z,1020.52
2018-04-26T07:52:49.183Z,1020.59
2018-04-26T07:53:49.757Z,1020.53
2018-04-26T07:54:50.329Z,1020.53
2018-04-26T07:55:50.954Z,1020.59
2018-04-26T07:57:35.873Z,1020.53
2018-04-26T07:58:36.448Z,1020.53
2018-04-26T07:59:37.113Z,1020.59
2018-04-26T08:00:37.686Z,1020.57
2018-04-26T08:02:22.608Z,1020.54
2018-04-26T08:03:23.181Z,1020.55
2018-04-26T08:04:23.755Z,1020.51
2018-04-26T08:05:24.328Z,1020.58
2018-04-26T08:07:09.251Z,1020.53
2018-04-26T08:08:09.824Z,1020.62
2018-04-26T08:09:10.397Z,1020.53
2018-04-26T08:10:11.022Z,1020.53
2018-04-26T08:11:55.945Z,1020.49
2018-04-26T08:12:56.519Z,1020.47
2018-04-26T08:13:57.134Z,1020.51
2018-04-26T08:14:57.708Z,1020.51
2018-04-26T08:16:42.678Z,1020.45
2018-04-26T08:17:43.252Z,1020.46
2018-04-26T08:18:43.824Z,1020.40
2018-04-26T08:19:44.421Z,1020.47
2018-04-26T08:21:29.330Z,1020.47
2018-04-26T08:22:29.942Z,1020.42
2018-04-26T08:23:30.515Z,1020.48
2018-04-26T08:24:31.087Z,1020.45
2018-04-26T08:26:16.010Z,1020.42
2018-04-26T08:27:16.590Z,1020.44
2018-04-26T08:28:17.157Z,1020.41
2018-04-26T08:29:17.729Z,1020.33
2018-04-26T08:31:02.704Z,1020.42
2018-04-26T08:32:03.326Z,1020.44
2018-04-26T08:33:03.898Z,1020.32
2018-04-26T08:34:04.471Z,1020.37
2018-04-26T08:35:49.392Z,1020.28
2018-04-26T08:36:50.036Z,1020.37
2018-04-26T08:37:50.542Z,1020.25
2018-04-26T08:38:51.114Z,1020.29
2018-04-26T08:40:36.038Z,1020.24
2018-04-26T08:41:36.612Z,1020.36
2018-04-26T08:42:37.246Z,1020.25
2018-04-26T08:43:37.815Z,1020.24
2018-04-26T08:45:22.777Z,1020.29
2018-04-26T08:46:23.351Z,1020.30
2018-04-26T08:47:23.925Z,1020.21
2018-04-26T08:48:24.550Z,1020.26
2018-04-26T08:50:09.474Z,1020.29
2018-04-26T08:51:10.047Z,1020.37
2018-04-26T08:52:10.671Z,1020.27
2018-04-26T08:53:11.246Z,1020.36
2018-04-26T08:54:56.168Z,1020.26
2018-04-26T08:55:56.743Z,1020.25
2018-04-26T08:56:57.321Z,1020.27
2018-04-26T08:57:57.993Z,1020.31
2018-04-26T08:59:43.043Z,1020.34
2018-04-26T09:00:43.527Z,1020.27
2018-04-26T09:01:44.102Z,1020.31
2018-04-26T09:02:44.676Z,1020.22
2018-04-26T09:04:29.599Z,1020.24
2018-04-26T09:05:30.174Z,1020.29
2018-04-26T09:06:30.798Z,1020.21
2018-04-26T09:07:31.372Z,1020.21
2018-04-26T09:09:16.295Z,1020.30
2018-04-26T09:10:16.869Z,1020.29
2018-04-26T09:11:17.443Z,1020.26
2018-04-26T09:12:18.071Z,1020.30
2018-04-26T09:14:03.035Z,1020.28
2018-04-26T09:15:03.656Z,1020.25
2018-04-26T09:16:04.283Z,1020.29
2018-04-26T09:17:04.891Z,1020.25
2018-04-26T09:18:49.863Z,1020.36
2018-04-26T09:19:50.437Z,1020.34
2018-04-26T09:20:51.010Z,1020.31
2018-04-26T09:21:51.617Z,1020.34
2018-04-26T09:23:36.508Z,1020.35
2018-04-26T09:24:37.082Z,1020.33
2018-04-26T09:25:37.658Z,1020.35
2018-04-26T09:26:38.229Z,1020.43
2018-04-26T09:28:23.155Z,1020.43
2018-04-26T09:29:23.727Z,1020.42
2018-04-26T09:30:24.302Z,1020.45
2018-04-26T09:31:24.876Z,1020.52
2018-04-26T09:33:10.001Z,1020.45
2018-04-26T09:34:10.575Z,1020.54
2018-04-26T09:35:11.150Z,1020.53
2018-04-26T09:36:11.724Z,1020.56
2018-04-26T09:37:56.696Z,1020.50
2018-04-26T09:38:57.270Z,1020.44
2018-04-26T09:39:57.846Z,1020.47
2018-04-26T09:40:58.419Z,1020.47
2018-04-26T09:42:43.351Z,1020.44
2018-04-26T09:43:43.960Z,1020.43
2018-04-26T09:44:44.534Z,1020.47
2018-04-26T09:45:45.110Z,1020.41
2018-04-26T09:47:30.183Z,1020.41
2018-04-26T09:48:30.759Z,1020.48
2018-04-26T09:49:31.375Z,1020.49
2018-04-26T09:50:31.948Z,1020.43
2018-04-26T09:52:16.873Z,1020.55
2018-04-26T09:53:17.496Z,1020.46
2018-04-26T09:54:18.070Z,1020.50
2018-04-26T09:55:18.643Z,1020.46
2018-04-26T09:57:03.567Z,1020.55
2018-04-26T09:58:04.141Z,1020.51
2018-04-26T09:59:04.714Z,1020.54
2018-04-26T10:00:05.290Z,1020.51
2018-04-26T10:01:50.330Z,1020.39
2018-04-26T10:02:50.840Z,1020.46
2018-04-26T10:03:51.415Z,1020.50
2018-04-26T10:04:52.042Z,1020.54
2018-04-26T10:06:36.960Z,1020.51
2018-04-26T10:07:37.532Z,1020.50
2018-04-26T10:08:38.151Z,1020.47
2018-04-26T10:09:38.726Z,1020.49
2018-04-26T10:11:23.651Z,1020.51
2018-04-26T10:12:24.226Z,1020.52
2018-04-26T10:13:24.802Z,1020.47
2018-04-26T10:14:25.395Z,1020.51
2018-04-26T10:16:10.300Z,1020.48
2018-04-26T10:17:10.873Z,1020.50
2018-04-26T10:18:11.448Z,1020.54
2018-04-26T10:19:12.022Z,1020.54
2018-04-26T10:20:56.997Z,1020.44
2018-04-26T10:21:57.573Z,1020.43
2018-04-26T10:22:58.241Z,1020.45
2018-04-26T10:23:58.816Z,1020.51
2018-04-26T10:25:43.789Z,1020.46
2018-04-26T10:26:44.366Z,1020.50
2018-04-26T10:27:44.941Z,1020.55
2018-04-26T10:28:45.515Z,1020.57
2018-04-26T10:30:30.438Z,1020.59
2018-04-26T10:31:31.012Z,1020.65
2018-04-26T10:32:31.587Z,1020.58
2018-04-26T10:33:32.162Z,1020.60
2018-04-26T10:35:17.160Z,1020.54
2018-04-26T10:36:17.705Z,1020.56
2018-04-26T10:37:18.280Z,1020.60
2018-04-26T10:38:18.854Z,1020.54
2018-04-26T10:40:03.779Z,1020.62
2018-04-26T10:41:04.403Z,1020.52
2018-04-26T10:42:05.032Z,1020.37
2018-04-26T10:43:05.601Z,1020.45
2018-04-26T10:44:50.522Z,1020.39
2018-04-26T10:45:51.103Z,1020.44
2018-04-26T10:46:51.765Z,1020.42
2018-04-26T10:47:52.338Z,1020.41
2018-04-26T10:49:37.267Z,1020.39
2018-04-26T10:50:37.837Z,1020.43
2018-04-26T10:51:38.411Z,1020.42
2018-04-26T10:52:38.987Z,1020.33
2018-04-26T10:54:23.912Z,1020.30
2018-04-26T10:55:24.488Z,1020.38
2018-04-26T10:56:25.060Z,1020.40
2018-04-26T10:57:25.635Z,1020.25
2018-04-26T10:59:10.610Z,1020.29
2018-04-26T11:00:11.266Z,1020.35
2018-04-26T11:01:11.808Z,1020.29
2018-04-26T11:02:12.383Z,1020.29
2018-04-26T11:03:57.306Z,1020.32
2018-04-26T11:04:57.880Z,1020.28
2018-04-26T11:05:58.506Z,1020.31
2018-04-26T11:06:59.080Z,1020.36
2018-04-26T11:08:44.005Z,1020.34
2018-04-26T11:09:44.579Z,1020.32
2018-04-26T11:10:45.155Z,1020.42
2018-04-26T11:11:45.730Z,1020.40
2018-04-26T11:13:30.655Z,1020.34
2018-04-26T11:14:31.228Z,1020.39
2018-04-26T11:15:31.824Z,1020.32
2018-04-26T11:16:32.379Z,1020.35
2018-04-26T11:18:17.354Z,1020.39
2018-04-26T11:19:17.980Z,1020.34
2018-04-26T11:20:18.606Z,1020.33
2018-04-26T11:21:19.184Z,1020.38
2018-04-26T11:23:04.105Z,1020.32
2018-04-26T11:24:04.680Z,1020.27
2018-04-26T11:25:05.304Z,1020.26
2018-04-26T11:26:05.879Z,1020.30
2018-04-26T11:27:50.804Z,1020.25
2018-04-26T11:28:51.379Z,1020.27
2018-04-26T11:29:51.955Z,1020.27
2018-04-26T11:30:52.618Z,1020.31
2018-04-26T11:32:37.654Z,1020.34
2018-04-26T11:33:38.231Z,1020.36
2018-04-26T11:34:38.809Z,1020.31
2018-04-26T11:35:39.426Z,1020.35
2018-04-26T11:37:29.451Z,1020.31
2018-04-26T11:38:30.026Z,1020.29
2018-04-26T11:39:30.650Z,1020.39
2018-04-26T11:40:31.224Z,1020.32
2018-04-26T11:42:16.147Z,1020.35
2018-04-26T11:43:16.722Z,1020.47
2018-04-26T11:44:17.302Z,1020.34
2018-04-26T11:45:17.872Z,1020.40
2018-04-26T11:47:02.797Z,1020.39
2018-04-26T11:48:03.372Z,1020.41
2018-04-26T11:49:03.949Z,1020.41
2018-04-26T11:50:04.576Z,1020.35
2018-04-26T11:51:49.499Z,1020.37
2018-04-26T11:52:50.123Z,1020.38
2018-04-26T11:53:50.697Z,1020.31
2018-04-26T11:54:51.327Z,1020.37
2018-04-26T11:56:36.245Z,1020.33
2018-04-26T11:57:36.820Z,1020.38
2018-04-26T11:58:37.396Z,1020.29
2018-04-26T11:59:39.267Z,1020.31
2018-04-26T12:01:24.244Z,1020.35
2018-04-26T12:02:24.845Z,1020.32
2018-04-26T12:03:25.431Z,1020.33
2018-04-26T12:04:26.020Z,1020.35
2018-04-26T12:06:10.939Z,1020.31
2018-04-26T12:07:11.514Z,1020.38
2018-04-26T12:08:12.089Z,1020.38
2018-04-26T12:09:12.713Z,1020.32
2018-04-26T12:10:57.641Z,1020.32
2018-04-26T12:11:58.215Z,1020.35
2018-04-26T12:12:58.790Z,1020.37
2018-04-26T12:13:59.415Z,1020.27
2018-04-26T12:15:44.391Z,1020.32
2018-04-26T12:16:44.967Z,1020.28
2018-04-26T12:17:45.545Z,1020.22
2018-04-26T12:18:46.160Z,1020.22
2018-04-26T12:20:31.084Z,1020.20
2018-04-26T12:21:31.659Z,1020.24
2018-04-26T12:22:32.234Z,1020.23
2018-04-26T12:23:32.809Z,1020.18
2018-04-26T12:25:17.736Z,1020.19
2018-04-26T12:26:18.310Z,1020.17
2018-04-26T12:27:18.886Z,1020.23
2018-04-26T12:28:19.511Z,1020.24
2018-04-26T12:30:04.437Z,1020.23
2018-04-26T12:31:05.016Z,1020.15
2018-04-26T12:32:05.793Z,1020.19
2018-04-26T12:33:06.458Z,1020.20
2018-04-26T12:34:51.379Z,1020.17
2018-04-26T12:35:51.953Z,1020.25
2018-04-26T12:36:52.538Z,1020.17
2018-04-26T12:37:53.104Z,1020.06
2018-04-26T12:39:38.030Z,1020.06
2018-04-26T12:40:38.605Z,1020.15
2018-04-26T12:41:39.257Z,1020.02
2018-04-26T12:42:39.755Z,1020.10
2018-04-26T12:44:24.681Z,1020.01
2018-04-26T12:45:25.260Z,1020.07
2018-04-26T12:46:25.834Z,1020.13
2018-04-26T12:47:26.410Z,1020.08
2018-04-26T12:49:11.386Z,1020.07
2018-04-26T12:50:11.965Z,1020.13
2018-04-26T12:51:12.589Z,1020.02
2018-04-26T12:52:13.215Z,1020.09
2018-04-26T12:53:58.139Z,1020.07
2018-04-26T12:54:58.714Z,1020.05
2018-04-26T12:55:59.291Z,1020.06
2018-04-26T12:56:59.866Z,1020.09
2018-04-26T12:58:44.793Z,1020.02
2018-04-26T12:59:45.367Z,1019.95
2018-04-26T13:00:45.943Z,1019.99
2018-04-26T13:01:46.519Z,1019.97
2018-04-26T13:03:31.444Z,1020.01
2018-04-26T13:04:32.021Z,1019.99
2018-04-26T13:05:32.639Z,1020.02
2018-04-26T13:06:33.213Z,1020.04
2018-04-26T13:08:18.189Z,1020.01
2018-04-26T13:09:18.766Z,1019.96
2018-04-26T13:10:19.392Z,1019.97
2018-04-26T13:11:20.019Z,1019.97
2018-04-26T13:13:04.943Z,1019.96
2018-04-26T13:14:05.518Z,1019.94
2018-04-26T13:15:06.094Z,1019.92
2018-04-26T13:16:06.672Z,1019.92
2018-04-26T13:17:51.595Z,1019.94
2018-04-26T13:18:52.169Z,1019.91
2018-04-26T13:19:52.745Z,1019.92
2018-04-26T13:20:53.321Z,1019.86
2018-04-26T13:22:38.250Z,1019.93
2018-04-26T13:23:38.822Z,1019.95
2018-04-26T13:24:39.398Z,1019.94
2018-04-26T13:25:39.974Z,1019.98
2018-04-26T13:27:24.978Z,1019.88
2018-04-26T13:28:25.578Z,1019.93
2018-04-26T13:29:26.196Z,1019.86
2018-04-26T13:30:26.781Z,1019.80
2018-04-26T13:32:11.705Z,1019.93
2018-04-26T13:33:12.280Z,1019.93
2018-04-26T13:34:12.854Z,1019.96
2018-04-26T13:35:13.430Z,1019.88
2018-04-26T13:36:58.408Z,1019.89
2018-04-26T13:37:58.984Z,1019.84
2018-04-26T13:38:59.559Z,1019.80
2018-04-26T13:40:00.135Z,1019.84
2018-04-26T13:41:45.060Z,1019.74
2018-04-26T13:42:45.635Z,1019.82
2018-04-26T13:43:46.210Z,1019.80
2018-04-26T13:44:46.785Z,1019.78
2018-04-26T13:46:31.711Z,1019.77
2018-04-26T13:47:32.368Z,1019.77
2018-04-26T13:48:32.960Z,1019.68
2018-04-26T13:49:33.534Z,1019.86
2018-04-26T13:51:18.461Z,1019.84
2018-04-26T13:52:19.035Z,1019.78
2018-04-26T13:53:19.634Z,1019.87
2018-04-26T13:54:20.231Z,1019.87
2018-04-26T13:56:05.206Z,1019.84
2018-04-26T13:57:05.786Z,1019.85
2018-04-26T13:58:06.401Z,1019.74
2018-04-26T13:59:06.975Z,1019.80
2018-04-26T14:00:51.900Z,1019.72
2018-04-26T14:01:52.475Z,1019.80
2018-04-26T14:02:53.051Z,1019.76
2018-04-26T14:03:53.627Z,1019.71
2018-04-26T14:05:38.668Z,1019.67
2018-04-26T14:06:39.179Z,1019.72
2018-04-26T14:07:39.806Z,1019.80
2018-04-26T14:08:40.380Z,1019.63
2018-04-26T14:10:25.456Z,1019.72
2018-04-26T14:11:26.032Z,1019.68
2018-04-26T14:12:26.607Z,1019.64
2018-04-26T14:13:27.186Z,1019.66
2018-04-26T14:15:12.149Z,1019.68
2018-04-26T14:16:12.727Z,1019.65
2018-04-26T14:17:13.394Z,1019.56
2018-04-26T14:18:13.967Z,1019.72
2018-04-26T14:19:58.894Z,1019.67
2018-04-26T14:20:59.470Z,1019.62
2018-04-26T14:22:00.046Z,1019.62
2018-04-26T14:23:00.712Z,1019.65
2018-04-26T14:24:45.596Z,1019.63
2018-04-26T14:25:46.172Z,1019.64
2018-04-26T14:26:46.747Z,1019.68
2018-04-26T14:27:47.323Z,1019.61
2018-04-26T14:29:32.416Z,1019.61
2018-04-26T14:30:32.877Z,1019.56
2018-04-26T14:31:33.453Z,1019.57
2018-04-26T14:32:34.028Z,1019.52
2018-04-26T14:34:18.957Z,1019.53
2018-04-26T14:35:19.529Z,1019.47
2018-04-26T14:36:20.109Z,1019.49
2018-04-26T14:37:20.723Z,1019.46
2018-04-26T14:39:05.605Z,1019.54
2018-04-26T14:40:06.232Z,1019.44
2018-04-26T14:41:06.808Z,1019.50
2018-04-26T14:42:07.382Z,1019.52
2018-04-26T14:43:52.507Z,1019.48
2018-04-26T14:44:53.083Z,1019.49
2018-04-26T14:45:53.657Z,1019.48
2018-04-26T14:46:54.233Z,1019.41
2018-04-26T14:48:39.160Z,1019.41
2018-04-26T14:49:39.829Z,1019.39